createdAt,value
2019-02-17T00:00:41.403Z,17.87
2019-02-17T00:03:10.102Z,16.00
2019-02-17T00:05:38.826Z,18.10
2019-02-17T00:08:07.586Z,16.13
2019-02-17T00:10:36.311Z,15.90
2019-02-17T00:13:04.936Z,19.30
2019-02-17T00:15:33.939Z,14.47
2019-02-17T00:18:02.689Z,18.47
2019-02-17T00:20:31.478Z,19.40
2019-02-17T00:23:00.053Z,18.97
2019-02-17T00:25:28.623Z,18.30
2019-02-17T00:27:57.310Z,14.73
2019-02-17T00:30:35.219Z,17.50
2019-02-17T00:33:03.859Z,21.53
2019-02-17T00:35:41.685Z,17.30
2019-02-17T00:38:10.302Z,16.57
2019-02-17T00:40:39.405Z,14.50
2019-02-17T00:43:08.211Z,16.80
2019-02-17T00:45:37.032Z,23.77
2019-02-17T00:48:05.812Z,17.00
2019-02-17T00:50:40.625Z,17.13
2019-02-17T00:53:10.249Z,18.40
2019-02-17T00:55:38.875Z,18.50
2019-02-17T00:58:07.429Z,17.53
2019-02-17T01:00:38.845Z,21.13
2019-02-17T01:03:07.365Z,14.00
2019-02-17T01:05:35.967Z,17.07
2019-02-17T01:08:04.636Z,17.07
2019-02-17T01:10:33.144Z,14.73
2019-02-17T01:13:01.666Z,16.27
2019-02-17T01:15:30.117Z,23.60
2019-02-17T01:17:58.784Z,15.63
2019-02-17T01:20:27.343Z,17.97
2019-02-17T01:22:55.877Z,19.77
2019-02-17T01:25:24.383Z,17.30
2019-02-17T01:27:52.826Z,14.03
2019-02-17T01:30:21.307Z,20.50
2019-02-17T01:32:49.920Z,14.77
2019-02-17T01:35:18.766Z,19.23
2019-02-17T01:37:47.541Z,20.00
2019-02-17T01:40:16.096Z,16.40
2019-02-17T01:42:44.668Z,16.73
2019-02-17T01:45:13.394Z,18.40
2019-02-17T01:47:41.953Z,17.37
2019-02-17T01:50:10.615Z,17.60
2019-02-17T01:52:39.123Z,16.53
2019-02-17T01:55:08.523Z,15.40
2019-02-17T01:57:37.217Z,14.70
2019-02-17T02:00:15.505Z,21.93
2019-02-17T02:02:44.029Z,18.23
2019-02-17T02:05:12.461Z,20.17
2019-02-17T02:07:40.915Z,18.90
2019-02-17T02:10:10.395Z,16.47
2019-02-17T02:12:38.994Z,15.30
2019-02-17T02:15:10.200Z,18.87
2019-02-17T02:17:38.712Z,18.40
2019-02-17T02:20:10.391Z,15.27
2019-02-17T02:22:38.915Z,15.60
2019-02-17T02:25:26.695Z,20.50
2019-02-17T02:27:55.147Z,17.30
2019-02-17T02:30:23.675Z,17.60
2019-02-17T02:32:52.203Z,23.10
2019-02-17T02:35:20.643Z,22.23
2019-02-17T02:37:49.105Z,19.07
2019-02-17T02:40:17.549Z,19.30
2019-02-17T02:42:46.076Z,18.40
2019-02-17T02:45:14.580Z,20.60
2019-02-17T02:47:43.108Z,17.63
2019-02-17T02:50:12.063Z,21.30
2019-02-17T02:52:40.515Z,18.63
2019-02-17T02:55:09.300Z,22.27
2019-02-17T02:57:37.743Z,16.60
2019-02-17T03:00:09.677Z,25.13
2019-02-17T03:02:38.130Z,15.40
2019-02-17T03:05:07.814Z,23.43
2019-02-17T03:07:36.250Z,18.33
2019-02-17T03:10:05.344Z,19.67
2019-02-17T03:12:33.800Z,18.77
2019-02-17T03:15:02.399Z,18.50
2019-02-17T03:17:31.809Z,16.10
2019-02-17T03:20:00.302Z,15.30
2019-02-17T03:22:28.776Z,22.03
2019-02-17T03:25:16.564Z,22.43
2019-02-17T03:27:45.006Z,23.40
2019-02-17T03:30:13.460Z,21.33
2019-02-17T03:32:41.899Z,19.13
2019-02-17T03:35:10.426Z,20.07
2019-02-17T03:37:39.855Z,18.83
2019-02-17T03:40:09.331Z,17.70
2019-02-17T03:42:38.819Z,22.93
2019-02-17T03:45:09.699Z,19.83
2019-02-17T03:47:38.248Z,19.20
2019-02-17T03:50:07.697Z,16.77
2019-02-17T03:52:36.171Z,16.70
2019-02-17T03:55:05.012Z,16.70
2019-02-17T03:57:33.483Z,19.87
2019-02-17T04:00:02.009Z,24.80
2019-02-17T04:02:30.532Z,19.43
2019-02-17T04:04:59.023Z,18.77
2019-02-17T04:07:27.475Z,19.27
2019-02-17T04:09:55.989Z,22.93
2019-02-17T04:12:24.460Z,20.57
2019-02-17T04:14:52.907Z,18.10
2019-02-17T04:17:21.343Z,24.30
2019-02-17T04:19:49.804Z,21.20
2019-02-17T04:22:18.257Z,17.60
2019-02-17T04:25:06.047Z,19.50
2019-02-17T04:27:34.495Z,19.83
2019-02-17T04:30:03.555Z,22.50
2019-02-17T04:32:31.988Z,20.20
2019-02-17T04:35:00.575Z,24.20
2019-02-17T04:37:29.059Z,22.27
2019-02-17T04:39:57.592Z,17.53
2019-02-17T04:42:45.383Z,22.33
2019-02-17T04:45:13.843Z,22.47
2019-02-17T04:47:42.360Z,21.80
2019-02-17T04:50:10.880Z,19.30
2019-02-17T04:52:39.392Z,22.90
2019-02-17T04:55:08.399Z,18.90
2019-02-17T04:57:36.931Z,19.47
2019-02-17T05:00:08.620Z,23.87
2019-02-17T05:02:37.084Z,21.47
2019-02-17T05:05:06.349Z,21.47
2019-02-17T05:07:34.892Z,23.03
2019-02-17T05:10:03.535Z,26.10
2019-02-17T05:12:34.082Z,22.00
2019-02-17T05:15:02.514Z,29.63
2019-02-17T05:17:30.971Z,20.17
2019-02-17T05:19:59.403Z,22.10
2019-02-17T05:22:27.860Z,24.33
2019-02-17T05:24:56.319Z,22.27
2019-02-17T05:27:24.788Z,31.27
2019-02-17T05:29:53.335Z,22.80
2019-02-17T05:32:21.771Z,21.93
2019-02-17T05:34:50.237Z,24.93
2019-02-17T05:37:18.682Z,20.50
2019-02-17T05:40:06.935Z,20.67
2019-02-17T05:42:35.375Z,25.33
2019-02-17T05:45:05.175Z,20.47
2019-02-17T05:47:33.613Z,30.23
2019-02-17T05:50:02.080Z,22.43
2019-02-17T05:52:49.871Z,20.87
2019-02-17T05:55:18.324Z,21.20
2019-02-17T05:57:46.771Z,22.10
2019-02-17T06:00:16.712Z,21.20
2019-02-17T06:02:45.193Z,25.97
2019-02-17T06:05:13.743Z,26.57
2019-02-17T06:07:43.163Z,23.27
2019-02-17T06:10:11.696Z,22.33
2019-02-17T06:12:40.167Z,24.20
2019-02-17T06:15:08.697Z,24.37
2019-02-17T06:17:38.119Z,30.67
2019-02-17T06:20:09.629Z,24.13
2019-02-17T06:22:38.064Z,24.37
2019-02-17T06:25:06.708Z,22.40
2019-02-17T06:27:35.161Z,23.60
2019-02-17T06:30:04.836Z,21.97
2019-02-17T06:32:33.295Z,20.30
2019-02-17T06:35:01.723Z,24.70
2019-02-17T06:37:30.184Z,24.33
2019-02-17T06:39:58.625Z,24.07
2019-02-17T06:42:27.079Z,23.73
2019-02-17T06:44:55.561Z,22.93
2019-02-17T06:47:25.680Z,28.10
2019-02-17T06:49:54.172Z,18.53
2019-02-17T06:52:22.752Z,23.67
2019-02-17T06:55:01.889Z,23.03
2019-02-17T06:57:32.003Z,23.10
2019-02-17T07:00:08.017Z,26.30
2019-02-17T07:02:36.476Z,25.23
2019-02-17T07:05:07.699Z,29.03
2019-02-17T07:07:36.155Z,28.30
2019-02-17T07:10:05.532Z,25.33
2019-02-17T07:12:33.990Z,23.83
2019-02-17T07:15:21.765Z,23.07
2019-02-17T07:17:50.237Z,21.07
2019-02-17T07:20:18.675Z,23.07
2019-02-17T07:22:47.140Z,23.90
2019-02-17T07:25:15.576Z,23.10
2019-02-17T07:27:44.015Z,24.30
2019-02-17T07:30:12.546Z,22.33
2019-02-17T07:32:40.984Z,20.90
2019-02-17T07:35:09.441Z,25.67
2019-02-17T07:37:37.884Z,23.43
2019-02-17T07:40:07.382Z,23.67
2019-02-17T07:42:35.824Z,22.50
2019-02-17T07:45:05.915Z,27.83
2019-02-17T07:47:34.347Z,26.90
2019-02-17T07:50:02.812Z,26.30
2019-02-17T07:52:31.265Z,25.37
2019-02-17T07:54:59.711Z,25.13
2019-02-17T07:57:28.152Z,23.80
2019-02-17T07:59:56.662Z,21.87
2019-02-17T08:02:25.103Z,22.37
2019-02-17T08:04:53.540Z,22.37
2019-02-17T08:07:22.021Z,20.53
2019-02-17T08:09:50.505Z,25.73
2019-02-17T08:12:18.959Z,24.17
2019-02-17T08:14:47.428Z,21.80
2019-02-17T08:17:15.879Z,21.70
2019-02-17T08:19:44.324Z,26.50
2019-02-17T08:22:12.778Z,24.20
2019-02-17T08:24:41.313Z,21.40
2019-02-17T08:27:29.173Z,27.47
2019-02-17T08:29:57.623Z,22.40
2019-02-17T08:32:26.158Z,24.37
2019-02-17T08:34:54.591Z,26.57
2019-02-17T08:37:23.055Z,26.17
2019-02-17T08:39:51.563Z,24.00
2019-02-17T08:42:20.029Z,20.87
2019-02-17T08:44:48.534Z,22.27
2019-02-17T08:47:17.073Z,26.13
2019-02-17T08:49:45.581Z,24.07
2019-02-17T08:52:14.048Z,24.47
2019-02-17T08:54:42.499Z,23.80
2019-02-17T08:57:10.936Z,25.10
2019-02-17T08:59:39.403Z,22.90
2019-02-17T09:02:07.867Z,28.40
2019-02-17T09:04:36.375Z,25.80
2019-02-17T09:07:06.402Z,26.20
2019-02-17T09:09:54.500Z,30.70
2019-02-17T09:12:24.065Z,29.27
2019-02-17T09:14:52.580Z,27.43
2019-02-17T09:17:21.028Z,29.60
2019-02-17T09:19:49.495Z,25.70
2019-02-17T09:22:17.942Z,30.57
2019-02-17T09:24:46.801Z,24.40
2019-02-17T09:27:15.245Z,23.43
2019-02-17T09:29:43.783Z,29.83
2019-02-17T09:32:16.328Z,28.27
2019-02-17T09:34:42.465Z,23.40
2019-02-17T09:37:10.914Z,20.50
2019-02-17T09:39:39.377Z,22.10
2019-02-17T09:42:07.818Z,22.40
2019-02-17T09:44:36.279Z,22.57
2019-02-17T09:47:04.791Z,21.73
2019-02-17T09:49:33.259Z,20.70
2019-02-17T09:52:01.698Z,17.80
2019-02-17T09:54:30.175Z,24.30
2019-02-17T09:56:58.619Z,23.30
2019-02-17T09:59:27.093Z,17.87
2019-02-17T10:01:55.627Z,19.33
2019-02-17T10:04:24.088Z,16.40
2019-02-17T10:06:52.636Z,22.23
2019-02-17T10:09:21.088Z,20.20
2019-02-17T10:11:49.564Z,16.30
2019-02-17T10:14:18.067Z,19.70
2019-02-17T10:16:46.535Z,17.80
2019-02-17T10:19:14.979Z,14.53
2019-02-17T10:21:43.454Z,18.27
2019-02-17T10:24:11.898Z,29.07
2019-02-17T10:26:40.405Z,19.07
2019-02-17T10:29:08.867Z,19.40
2019-02-17T10:31:37.397Z,19.20
2019-02-17T10:34:05.849Z,18.50
2019-02-17T10:36:34.316Z,18.73
2019-02-17T10:39:04.466Z,18.57
2019-02-17T10:41:32.939Z,17.60
2019-02-17T10:44:01.492Z,18.73
2019-02-17T10:46:29.964Z,16.00
2019-02-17T10:48:58.403Z,20.90
2019-02-17T10:51:26.887Z,21.50
2019-02-17T10:53:55.340Z,15.20
2019-02-17T10:56:23.786Z,16.60
2019-02-17T10:58:52.254Z,18.80
2019-02-17T11:01:20.713Z,22.40
2019-02-17T11:04:07.035Z,19.37
2019-02-17T11:06:35.564Z,19.37
2019-02-17T11:09:06.599Z,15.80
2019-02-17T11:11:45.391Z,29.50
2019-02-17T11:14:13.997Z,16.97
2019-02-17T11:16:42.879Z,16.67
2019-02-17T11:19:11.494Z,14.10
2019-02-17T11:21:39.938Z,15.40
2019-02-17T11:24:08.395Z,14.50
2019-02-17T11:26:37.142Z,12.70
2019-02-17T11:29:06.022Z,16.83
2019-02-17T11:31:34.475Z,13.90
2019-02-17T11:34:03.306Z,17.10
2019-02-17T11:36:31.799Z,22.53
2019-02-17T11:39:00.288Z,17.37
2019-02-17T11:41:29.303Z,13.67
2019-02-17T11:43:58.070Z,12.97
2019-02-17T11:46:26.586Z,18.67
2019-02-17T11:48:55.145Z,19.80
2019-02-17T11:51:23.595Z,13.17
2019-02-17T11:53:52.052Z,14.10
2019-02-17T11:56:20.490Z,15.10
2019-02-17T11:58:48.977Z,17.20
2019-02-17T12:01:17.430Z,15.73
2019-02-17T12:03:45.889Z,12.80
2019-02-17T12:06:14.367Z,13.17
2019-02-17T12:08:47.495Z,16.20
2019-02-17T12:11:15.969Z,18.37
2019-02-17T12:13:44.547Z,17.63
2019-02-17T12:16:13.007Z,14.90
2019-02-17T12:18:41.476Z,12.37
2019-02-17T12:21:23.398Z,15.83
2019-02-17T12:23:53.539Z,15.20
2019-02-17T12:26:26.468Z,15.57
2019-02-17T12:28:59.301Z,14.70
2019-02-17T12:31:29.543Z,13.73
2019-02-17T12:34:17.338Z,15.13
2019-02-17T12:36:45.827Z,14.50
2019-02-17T12:39:15.207Z,14.30
2019-02-17T12:41:43.831Z,15.57
2019-02-17T12:44:12.274Z,14.07
2019-02-17T12:46:40.748Z,21.47
2019-02-17T12:49:09.257Z,14.60
2019-02-17T12:51:37.721Z,12.97
2019-02-17T12:54:06.184Z,13.67
2019-02-17T12:56:34.655Z,13.10
2019-02-17T12:59:03.202Z,13.13
2019-02-17T13:01:31.653Z,15.10
2019-02-17T13:04:00.119Z,12.77
2019-02-17T13:06:28.619Z,11.17
2019-02-17T13:08:57.084Z,15.97
2019-02-17T13:11:25.526Z,10.23
2019-02-17T13:13:53.996Z,11.70
2019-02-17T13:16:22.517Z,10.53
2019-02-17T13:18:51.051Z,13.07
2019-02-17T13:21:19.504Z,10.97
2019-02-17T13:23:47.955Z,12.13
2019-02-17T13:26:16.401Z,12.27
2019-02-17T13:28:44.926Z,11.73
2019-02-17T13:31:13.364Z,11.50
2019-02-17T13:33:41.868Z,11.20
2019-02-17T13:36:10.302Z,9.90
2019-02-17T13:38:38.759Z,9.70
2019-02-17T13:41:07.235Z,9.70
2019-02-17T13:43:35.688Z,9.97
2019-02-17T13:46:04.123Z,10.80
2019-02-17T13:48:32.582Z,10.83
2019-02-17T13:51:01.026Z,10.50
2019-02-17T13:53:29.521Z,11.20
2019-02-17T13:55:58.027Z,11.50
2019-02-17T13:58:26.476Z,10.10
2019-02-17T14:00:54.952Z,11.10
2019-02-17T14:03:23.538Z,9.47
2019-02-17T14:05:57.909Z,9.90
2019-02-17T14:08:26.352Z,9.20
2019-02-17T14:10:54.958Z,9.20
2019-02-17T14:13:23.778Z,28.30
2019-02-17T14:15:52.610Z,8.63
2019-02-17T14:18:21.591Z,9.07
2019-02-17T14:20:50.378Z,9.13
2019-02-17T14:23:20.967Z,7.83
2019-02-17T14:25:49.667Z,8.43
2019-02-17T14:28:18.627Z,8.97
2019-02-17T14:30:48.724Z,9.50
2019-02-17T14:33:17.471Z,7.97
2019-02-17T14:35:46.312Z,8.27
2019-02-17T14:38:15.107Z,8.70
2019-02-17T14:40:43.685Z,7.90
2019-02-17T14:43:12.630Z,8.70
2019-02-17T14:45:42.795Z,8.40
2019-02-17T14:48:11.806Z,8.10
2019-02-17T14:50:40.809Z,11.80
2019-02-17T14:53:09.968Z,9.53
2019-02-17T14:55:39.024Z,11.30
2019-02-17T14:58:08.263Z,8.90
2019-02-17T15:00:36.781Z,9.00
2019-02-17T15:03:05.297Z,8.03
2019-02-17T15:05:53.750Z,9.80
2019-02-17T15:08:22.440Z,9.47
2019-02-17T15:10:51.676Z,8.83
2019-02-17T15:13:24.546Z,9.47
2019-02-17T15:15:51.599Z,8.20
2019-02-17T15:18:20.871Z,10.43
2019-02-17T15:20:49.407Z,12.80
2019-02-17T15:23:17.850Z,8.00
2019-02-17T15:25:46.399Z,10.50
2019-02-17T15:28:14.948Z,8.17
2019-02-17T15:30:43.379Z,9.57
2019-02-17T15:33:11.931Z,8.47
2019-02-17T15:35:40.455Z,8.57
2019-02-17T15:38:08.920Z,11.30
2019-02-17T15:40:37.440Z,9.17
2019-02-17T15:43:05.992Z,9.03
2019-02-17T15:45:34.475Z,9.70
2019-02-17T15:48:05.806Z,8.00
2019-02-17T15:50:34.315Z,9.23
2019-02-17T15:53:02.800Z,8.20
2019-02-17T15:55:31.376Z,10.30
2019-02-17T15:57:59.820Z,7.67
2019-02-17T16:00:28.239Z,8.60
2019-02-17T16:02:56.907Z,7.83
2019-02-17T16:05:25.501Z,8.33
2019-02-17T16:07:53.959Z,8.73
2019-02-17T16:10:22.406Z,7.50
2019-02-17T16:12:50.895Z,8.23
2019-02-17T16:15:21.563Z,8.73
2019-02-17T16:17:50.013Z,9.73
2019-02-17T16:20:18.464Z,10.27
2019-02-17T16:22:46.908Z,7.93
2019-02-17T16:25:15.435Z,9.50
2019-02-17T16:27:43.880Z,10.20
2019-02-17T16:30:18.159Z,7.10
2019-02-17T16:32:46.603Z,7.43
2019-02-17T16:35:16.189Z,10.57
2019-02-17T16:37:44.687Z,8.10
2019-02-17T16:40:15.251Z,7.63
2019-02-17T16:42:44.059Z,7.07
2019-02-17T16:45:14.631Z,7.83
2019-02-17T16:47:43.744Z,6.93
2019-02-17T16:50:23.020Z,9.57
2019-02-17T16:52:51.541Z,8.40
2019-02-17T16:55:20.092Z,10.33
2019-02-17T16:57:48.764Z,8.80
2019-02-17T17:00:24.938Z,10.60
2019-02-17T17:02:55.391Z,8.07
2019-02-17T17:05:25.253Z,8.10
2019-02-17T17:07:53.790Z,9.03
2019-02-17T17:10:22.387Z,5.80
2019-02-17T17:12:51.000Z,12.03
2019-02-17T17:15:20.401Z,8.20
2019-02-17T17:17:48.941Z,6.27
2019-02-17T17:20:19.647Z,6.87
2019-02-17T17:23:07.453Z,13.73
2019-02-17T17:25:35.932Z,7.30
2019-02-17T17:28:04.616Z,9.10
2019-02-17T17:30:33.228Z,10.80
2019-02-17T17:33:01.713Z,6.37
2019-02-17T17:35:30.254Z,10.10
2019-02-17T17:37:58.704Z,7.33
2019-02-17T17:40:27.211Z,6.53
2019-02-17T17:42:55.664Z,6.20
2019-02-17T17:45:25.087Z,6.53
2019-02-17T17:47:53.539Z,10.07
2019-02-17T17:50:22.532Z,7.73
2019-02-17T17:52:51.019Z,6.50
2019-02-17T17:55:19.796Z,5.80
2019-02-17T17:57:48.944Z,6.73
2019-02-17T18:00:22.594Z,8.50
2019-02-17T18:02:51.038Z,10.00
2019-02-17T18:05:19.589Z,7.20
2019-02-17T18:07:48.120Z,8.17
2019-02-17T18:10:17.301Z,7.17
2019-02-17T18:12:45.766Z,7.30
2019-02-17T18:15:18.456Z,8.27
2019-02-17T18:17:53.842Z,8.80
2019-02-17T18:20:17.267Z,11.00
2019-02-17T18:22:45.932Z,10.40
2019-02-17T18:25:14.936Z,11.70
2019-02-17T18:27:43.367Z,7.10
2019-02-17T18:30:19.948Z,8.57
2019-02-17T18:32:48.457Z,8.10
2019-02-17T18:35:20.364Z,6.17
2019-02-17T18:37:47.211Z,8.23
2019-02-17T18:40:16.875Z,6.90
2019-02-17T18:42:45.363Z,7.93
2019-02-17T18:45:15.234Z,8.53
2019-02-17T18:47:43.800Z,7.83
2019-02-17T18:50:14.655Z,8.63
2019-02-17T18:52:43.171Z,14.17
2019-02-17T18:55:12.955Z,8.20
2019-02-17T18:57:49.583Z,12.30
2019-02-17T19:00:20.011Z,7.63
2019-02-17T19:02:48.481Z,7.20
2019-02-17T19:05:17.008Z,8.40
2019-02-17T19:08:04.795Z,7.57
2019-02-17T19:10:34.815Z,7.23
2019-02-17T19:13:03.524Z,9.60
2019-02-17T19:15:31.980Z,8.23
2019-02-17T19:18:00.437Z,8.27
2019-02-17T19:20:37.104Z,8.07
2019-02-17T19:23:05.644Z,12.97
2019-02-17T19:25:34.165Z,6.97
2019-02-17T19:28:03.741Z,8.20
2019-02-17T19:30:32.524Z,10.23
2019-02-17T19:33:00.988Z,13.20
2019-02-17T19:35:29.486Z,12.23
2019-02-17T19:37:58.979Z,11.10
2019-02-17T19:40:27.475Z,10.03
2019-02-17T19:42:55.940Z,8.93
2019-02-17T19:45:24.404Z,11.17
2019-02-17T19:47:52.858Z,10.17
2019-02-17T19:50:21.356Z,7.30
2019-02-17T19:52:49.820Z,10.60
2019-02-17T19:55:18.259Z,12.40
2019-02-17T19:57:47.050Z,10.37
2019-02-17T20:00:16.805Z,9.53
2019-02-17T20:02:49.762Z,10.17
2019-02-17T20:05:20.027Z,6.63
2019-02-17T20:07:48.689Z,9.00
2019-02-17T20:10:17.224Z,11.63
2019-02-17T20:12:45.739Z,7.77
2019-02-17T20:15:14.249Z,9.53
2019-02-17T20:17:42.856Z,7.63
2019-02-17T20:20:11.605Z,7.40
2019-02-17T20:22:40.076Z,8.23
2019-02-17T20:25:08.760Z,7.80
2019-02-17T20:27:37.227Z,9.03
2019-02-17T20:30:13.661Z,8.07
2019-02-17T20:32:42.544Z,7.67
2019-02-17T20:35:11.278Z,10.00
2019-02-17T20:37:39.859Z,64.60
2019-02-17T20:40:16.269Z,9.80
2019-02-17T20:42:44.902Z,10.90
2019-02-17T20:45:13.617Z,11.63
2019-02-17T20:47:42.139Z,13.57
2019-02-17T20:50:12.865Z,10.60
2019-02-17T20:52:41.315Z,10.37
2019-02-17T20:55:11.495Z,12.10
2019-02-17T20:57:39.954Z,11.23
2019-02-17T21:00:18.135Z,12.40
2019-02-17T21:02:46.597Z,10.37
2019-02-17T21:05:15.378Z,11.43
2019-02-17T21:07:43.838Z,18.93
2019-02-17T21:10:13.569Z,15.43
2019-02-17T21:12:42.018Z,13.55
2019-02-17T21:15:13.259Z,17.97
2019-02-17T21:17:41.858Z,13.43
2019-02-17T21:20:11.060Z,8.47
2019-02-17T21:22:39.551Z,9.40
2019-02-17T21:25:10.269Z,13.90
2019-02-17T21:27:38.771Z,11.83
2019-02-17T21:30:10.519Z,8.77
2019-02-17T21:32:38.949Z,9.60
2019-02-17T21:35:10.445Z,7.20
2019-02-17T21:37:38.902Z,9.87
2019-02-17T21:40:09.728Z,6.73
2019-02-17T21:42:38.236Z,10.87
2019-02-17T21:45:09.791Z,8.37
2019-02-17T21:47:39.130Z,7.20
2019-02-17T21:50:10.948Z,7.03
2019-02-17T21:52:41.789Z,7.30
2019-02-17T21:55:11.389Z,8.80
2019-02-17T21:57:59.181Z,7.67
2019-02-17T22:00:27.727Z,6.90
2019-02-17T22:02:57.132Z,6.77
2019-02-17T22:05:25.583Z,8.97
2019-02-17T22:07:54.049Z,8.20
2019-02-17T22:10:22.483Z,7.63
2019-02-17T22:12:51.594Z,6.90
2019-02-17T22:15:24.538Z,8.10
2019-02-17T22:17:53.004Z,12.90
2019-02-17T22:20:21.455Z,7.80
2019-02-17T22:22:49.906Z,7.40
2019-02-17T22:25:18.478Z,7.27
2019-02-17T22:27:46.942Z,9.17
2019-02-17T22:30:15.799Z,8.73
2019-02-17T22:32:44.508Z,7.87
2019-02-17T22:35:13.023Z,7.83
2019-02-17T22:37:41.469Z,7.53
2019-02-17T22:40:14.204Z,7.17
2019-02-17T22:42:43.763Z,9.23
2019-02-17T22:45:15.948Z,8.07
2019-02-17T22:47:44.543Z,7.10
2019-02-17T22:50:32.335Z,9.40
2019-02-17T22:53:00.798Z,7.43
2019-02-17T22:55:29.308Z,9.40
2019-02-17T22:57:57.762Z,8.13
2019-02-17T23:00:45.700Z,9.43
2019-02-17T23:03:14.155Z,10.10
2019-02-17T23:05:42.591Z,8.13
2019-02-17T23:08:11.179Z,8.10
2019-02-17T23:10:39.683Z,11.07
2019-02-17T23:13:08.200Z,8.37
2019-02-17T23:15:36.645Z,7.80
2019-02-17T23:18:05.294Z,7.73
2019-02-17T23:20:33.744Z,11.63
2019-02-17T23:23:02.305Z,8.13
2019-02-17T23:25:50.100Z,7.37
2019-02-17T23:28:18.656Z,6.87
2019-02-17T23:30:47.159Z,6.53
2019-02-17T23:33:15.601Z,6.43
2019-02-17T23:35:44.120Z,7.80
2019-02-17T23:38:12.546Z,7.03
2019-02-17T23:40:41.000Z,6.90
2019-02-17T23:43:09.436Z,7.70
2019-02-17T23:45:37.889Z,6.97
2019-02-17T23:48:06.320Z,8.70
2019-02-17T23:50:34.840Z,8.97
2019-02-17T23:53:03.272Z,7.23
2019-02-17T23:55:31.714Z,12.50
2019-02-17T23:58:00.151Z,7.50
